sensor_id;sensor_type;location;lat;lon;timestamp;P1;durP1;ratioP1;P2;durP2;ratioP2
52188;SDS011;38162;45.926;13.608;2023-10-19T00:01:14;3.85;;;3.28;;
52188;SDS011;38162;45.926;13.608;2023-10-19T00:03:43;3.38;;;3.05;;
52188;SDS011;38162;45.926;13.608;2023-10-19T00:06:09;4.05;;;3.20;;
52188;SDS011;38162;45.926;13.608;2023-10-19T00:08:36;4.32;;;3.45;;
52188;SDS011;38162;45.926;13.608;2023-10-19T00:11:12;3.67;;;3.25;;
52188;SDS011;38162;45.926;13.608;2023-10-19T00:13:47;4.68;;;3.17;;
52188;SDS011;38162;45.926;13.608;2023-10-19T00:16:19;3.85;;;3.25;;
52188;SDS011;38162;45.926;13.608;2023-10-19T00:18:51;3.10;;;2.80;;
52188;SDS011;38162;45.926;13.608;2023-10-19T00:21:17;3.80;;;3.03;;
52188;SDS011;38162;45.926;13.608;2023-10-19T00:23:47;3.47;;;2.75;;
52188;SDS011;38162;45.926;13.608;2023-10-19T00:26:19;3.08;;;2.60;;
52188;SDS011;38162;45.926;13.608;2023-10-19T00:28:46;4.95;;;2.80;;
52188;SDS011;38162;45.926;13.608;2023-10-19T00:31:21;3.10;;;2.80;;
52188;SDS011;38162;45.926;13.608;2023-10-19T00:33:48;3.80;;;3.00;;
52188;SDS011;38162;45.926;13.608;2023-10-19T00:36:19;3.00;;;2.78;;
52188;SDS011;38162;45.926;13.608;2023-10-19T00:38:46;3.65;;;2.60;;
52188;SDS011;38162;45.926;13.608;2023-10-19T00:41:18;3.30;;;2.40;;
52188;SDS011;38162;45.926;13.608;2023-10-19T00:44:00;2.83;;;2.20;;
52188;SDS011;38162;45.926;13.608;2023-10-19T00:46:32;2.30;;;2.10;;
52188;SDS011;38162;45.926;13.608;2023-10-19T00:49:03;3.30;;;2.08;;
52188;SDS011;38162;45.926;13.608;2023-10-19T00:51:52;2.20;;;2.00;;
52188;SDS011;38162;45.926;13.608;2023-10-19T00:54:25;2.03;;;1.80;;
52188;SDS011;38162;45.926;13.608;2023-10-19T00:57:02;2.38;;;1.88;;
52188;SDS011;38162;45.926;13.608;2023-10-19T00:59:33;2.63;;;1.93;;
52188;SDS011;38162;45.926;13.608;2023-10-19T01:02:08;2.33;;;1.98;;
52188;SDS011;38162;45.926;13.608;2023-10-19T01:04:46;3.20;;;2.33;;
52188;SDS011;38162;45.926;13.608;2023-10-19T01:07:31;3.70;;;2.15;;
52188;SDS011;38162;45.926;13.608;2023-10-19T01:10:03;2.75;;;2.50;;
52188;SDS011;38162;45.926;13.608;2023-10-19T01:13:05;3.38;;;2.35;;
52188;SDS011;38162;45.926;13.608;2023-10-19T01:15:31;2.33;;;1.95;;
52188;SDS011;38162;45.926;13.608;2023-10-19T01:18:02;3.15;;;1.98;;
52188;SDS011;38162;45.926;13.608;2023-10-19T01:20:30;2.17;;;1.80;;
52188;SDS011;38162;45.926;13.608;2023-10-19T01:22:58;1.70;;;1.25;;
52188;SDS011;38162;45.926;13.608;2023-10-19T01:28:26;2.38;;;1.20;;
52188;SDS011;38162;45.926;13.608;2023-10-19T01:31:12;1.58;;;1.10;;
52188;SDS011;38162;45.926;13.608;2023-10-19T01:34:00;4.90;;;1.10;;
52188;SDS011;38162;45.926;13.608;2023-10-19T01:36:32;1.50;;;0.90;;
52188;SDS011;38162;45.926;13.608;2023-10-19T01:39:08;1.45;;;0.90;;
52188;SDS011;38162;45.926;13.608;2023-10-19T01:41:37;1.60;;;0.90;;
52188;SDS011;38162;45.926;13.608;2023-10-19T01:44:09;1.27;;;1.15;;
52188;SDS011;38162;45.926;13.608;2023-10-19T01:46:41;2.60;;;1.20;;
52188;SDS011;38162;45.926;13.608;2023-10-19T01:49:10;2.65;;;1.10;;
52188;SDS011;38162;45.926;13.608;2023-10-19T01:51:37;1.20;;;1.10;;
52188;SDS011;38162;45.926;13.608;2023-10-19T01:54:08;1.20;;;0.95;;
52188;SDS011;38162;45.926;13.608;2023-10-19T01:56:36;1.75;;;1.10;;
52188;SDS011;38162;45.926;13.608;2023-10-19T01:59:03;1.38;;;0.95;;
52188;SDS011;38162;45.926;13.608;2023-10-19T02:01:30;3.80;;;0.90;;
52188;SDS011;38162;45.926;13.608;2023-10-19T02:03:58;0.70;;;0.60;;
52188;SDS011;38162;45.926;13.608;2023-10-19T02:06:26;1.23;;;0.77;;
52188;SDS011;38162;45.926;13.608;2023-10-19T02:09:04;1.95;;;0.80;;
52188;SDS011;38162;45.926;13.608;2023-10-19T02:11:39;1.63;;;0.70;;
52188;SDS011;38162;45.926;13.608;2023-10-19T02:14:10;0.80;;;0.50;;
52188;SDS011;38162;45.926;13.608;2023-10-19T02:16:42;0.73;;;0.73;;
52188;SDS011;38162;45.926;13.608;2023-10-19T02:19:09;1.48;;;0.70;;
52188;SDS011;38162;45.926;13.608;2023-10-19T02:21:36;1.38;;;0.60;;
52188;SDS011;38162;45.926;13.608;2023-10-19T02:24:08;2.88;;;0.77;;
52188;SDS011;38162;45.926;13.608;2023-10-19T02:26:42;3.08;;;0.70;;
52188;SDS011;38162;45.926;13.608;2023-10-19T02:29:08;2.90;;;0.90;;
52188;SDS011;38162;45.926;13.608;2023-10-19T02:31:37;1.02;;;0.60;;
52188;SDS011;38162;45.926;13.608;2023-10-19T02:34:07;0.70;;;0.52;;
52188;SDS011;38162;45.926;13.608;2023-10-19T02:36:35;0.88;;;0.70;;
52188;SDS011;38162;45.926;13.608;2023-10-19T02:39:03;3.55;;;0.60;;
52188;SDS011;38162;45.926;13.608;2023-10-19T02:41:34;0.50;;;0.50;;
52188;SDS011;38162;45.926;13.608;2023-10-19T02:44:02;4.10;;;0.50;;
52188;SDS011;38162;45.926;13.608;2023-10-19T02:46:40;1.30;;;0.40;;
52188;SDS011;38162;45.926;13.608;2023-10-19T02:49:07;0.52;;;0.52;;
52188;SDS011;38162;45.926;13.608;2023-10-19T02:51:40;2.47;;;0.40;;
52188;SDS011;38162;45.926;13.608;2023-10-19T02:54:10;0.70;;;0.50;;
52188;SDS011;38162;45.926;13.608;2023-10-19T02:56:57;0.90;;;0.50;;
52188;SDS011;38162;45.926;13.608;2023-10-19T02:59:25;0.77;;;0.40;;
52188;SDS011;38162;45.926;13.608;2023-10-19T03:01:55;1.00;;;0.60;;
52188;SDS011;38162;45.926;13.608;2023-10-19T03:04:36;1.17;;;0.47;;
52188;SDS011;38162;45.926;13.608;2023-10-19T03:07:03;1.35;;;0.50;;
52188;SDS011;38162;45.926;13.608;2023-10-19T03:09:32;0.30;;;0.30;;
52188;SDS011;38162;45.926;13.608;2023-10-19T03:12:02;2.05;;;0.50;;
52188;SDS011;38162;45.926;13.608;2023-10-19T03:14:31;0.38;;;0.30;;
52188;SDS011;38162;45.926;13.608;2023-10-19T03:17:00;1.38;;;0.40;;
52188;SDS011;38162;45.926;13.608;2023-10-19T03:19:27;2.03;;;0.47;;
52188;SDS011;38162;45.926;13.608;2023-10-19T03:21:53;0.60;;;0.40;;
52188;SDS011;38162;45.926;13.608;2023-10-19T03:24:20;0.77;;;0.40;;
52188;SDS011;38162;45.926;13.608;2023-10-19T03:27:08;1.27;;;0.40;;
52188;SDS011;38162;45.926;13.608;2023-10-19T03:29:43;0.77;;;0.55;;
52188;SDS011;38162;45.926;13.608;2023-10-19T03:32:18;0.80;;;0.43;;
52188;SDS011;38162;45.926;13.608;2023-10-19T03:34:47;0.90;;;0.40;;
52188;SDS011;38162;45.926;13.608;2023-10-19T03:37:14;0.43;;;0.30;;
52188;SDS011;38162;45.926;13.608;2023-10-19T03:39:42;0.93;;;0.57;;
52188;SDS011;38162;45.926;13.608;2023-10-19T03:42:11;1.17;;;1.10;;
52188;SDS011;38162;45.926;13.608;2023-10-19T03:44:39;0.90;;;0.80;;
52188;SDS011;38162;45.926;13.608;2023-10-19T03:47:08;1.27;;;1.02;;
52188;SDS011;38162;45.926;13.608;2023-10-19T03:49:37;0.95;;;0.50;;
52188;SDS011;38162;45.926;13.608;2023-10-19T03:52:07;1.40;;;0.40;;
52188;SDS011;38162;45.926;13.608;2023-10-19T03:54:33;0.30;;;0.28;;
52188;SDS011;38162;45.926;13.608;2023-10-19T03:57:03;0.30;;;0.30;;
52188;SDS011;38162;45.926;13.608;2023-10-19T03:59:31;2.53;;;0.50;;
52188;SDS011;38162;45.926;13.608;2023-10-19T04:01:59;0.98;;;0.52;;
52188;SDS011;38162;45.926;13.608;2023-10-19T04:04:26;1.30;;;0.52;;
52188;SDS011;38162;45.926;13.608;2023-10-19T04:06:55;0.45;;;0.40;;
52188;SDS011;38162;45.926;13.608;2023-10-19T04:09:24;1.92;;;0.35;;
52188;SDS011;38162;45.926;13.608;2023-10-19T04:11:59;0.98;;;0.52;;
52188;SDS011;38162;45.926;13.608;2023-10-19T04:14:27;1.30;;;0.50;;
52188;SDS011;38162;45.926;13.608;2023-10-19T04:16:55;0.50;;;0.40;;
52188;SDS011;38162;45.926;13.608;2023-10-19T04:19:24;2.90;;;0.40;;
52188;SDS011;38162;45.926;13.608;2023-10-19T04:21:53;0.63;;;0.50;;
52188;SDS011;38162;45.926;13.608;2023-10-19T04:24:20;1.13;;;0.45;;
52188;SDS011;38162;45.926;13.608;2023-10-19T04:26:46;1.40;;;0.50;;
52188;SDS011;38162;45.926;13.608;2023-10-19T04:29:14;1.55;;;0.70;;
52188;SDS011;38162;45.926;13.608;2023-10-19T04:31:42;1.23;;;0.60;;
52188;SDS011;38162;45.926;13.608;2023-10-19T04:34:17;0.90;;;0.57;;
52188;SDS011;38162;45.926;13.608;2023-10-19T04:36:46;0.82;;;0.50;;
52188;SDS011;38162;45.926;13.608;2023-10-19T04:39:12;2.08;;;1.13;;
52188;SDS011;38162;45.926;13.608;2023-10-19T04:41:41;1.40;;;0.52;;
52188;SDS011;38162;45.926;13.608;2023-10-19T04:44:09;1.08;;;0.55;;
52188;SDS011;38162;45.926;13.608;2023-10-19T04:46:35;1.23;;;0.70;;
52188;SDS011;38162;45.926;13.608;2023-10-19T04:49:05;1.67;;;0.50;;
52188;SDS011;38162;45.926;13.608;2023-10-19T04:51:30;0.85;;;0.50;;
52188;SDS011;38162;45.926;13.608;2023-10-19T04:53:56;0.93;;;0.70;;
52188;SDS011;38162;45.926;13.608;2023-10-19T04:56:22;2.20;;;0.70;;
52188;SDS011;38162;45.926;13.608;2023-10-19T04:58:48;2.92;;;0.57;;
52188;SDS011;38162;45.926;13.608;2023-10-19T05:01:17;0.98;;;0.63;;
52188;SDS011;38162;45.926;13.608;2023-10-19T05:03:43;0.95;;;0.70;;
52188;SDS011;38162;45.926;13.608;2023-10-19T05:06:09;1.20;;;0.70;;
52188;SDS011;38162;45.926;13.608;2023-10-19T05:08:35;1.17;;;0.50;;
52188;SDS011;38162;45.926;13.608;2023-10-19T05:11:02;4.10;;;0.80;;
52188;SDS011;38162;45.926;13.608;2023-10-19T05:13:31;1.13;;;0.80;;
52188;SDS011;38162;45.926;13.608;2023-10-19T05:16:00;1.52;;;1.10;;
52188;SDS011;38162;45.926;13.608;2023-10-19T05:18:26;2.53;;;1.13;;
52188;SDS011;38162;45.926;13.608;2023-10-19T05:20:52;4.43;;;1.10;;
52188;SDS011;38162;45.926;13.608;2023-10-19T05:23:24;1.30;;;1.20;;
52188;SDS011;38162;45.926;13.608;2023-10-19T05:25:52;1.40;;;0.98;;
52188;SDS011;38162;45.926;13.608;2023-10-19T05:28:19;2.40;;;1.30;;
52188;SDS011;38162;45.926;13.608;2023-10-19T05:30:46;4.63;;;1.10;;
52188;SDS011;38162;45.926;13.608;2023-10-19T05:33:16;1.40;;;1.05;;
52188;SDS011;38162;45.926;13.608;2023-10-19T05:35:48;1.83;;;0.95;;
52188;SDS011;38162;45.926;13.608;2023-10-19T05:38:15;2.10;;;1.30;;
52188;SDS011;38162;45.926;13.608;2023-10-19T05:40:42;1.38;;;1.00;;
52188;SDS011;38162;45.926;13.608;2023-10-19T05:43:11;2.08;;;1.10;;
52188;SDS011;38162;45.926;13.608;2023-10-19T05:45:39;1.70;;;1.33;;
52188;SDS011;38162;45.926;13.608;2023-10-19T05:48:05;2.72;;;1.27;;
52188;SDS011;38162;45.926;13.608;2023-10-19T05:50:32;2.97;;;1.27;;
52188;SDS011;38162;45.926;13.608;2023-10-19T05:52:59;2.95;;;1.48;;
52188;SDS011;38162;45.926;13.608;2023-10-19T05:55:34;3.22;;;1.80;;
52188;SDS011;38162;45.926;13.608;2023-10-19T05:58:01;4.53;;;1.63;;
52188;SDS011;38162;45.926;13.608;2023-10-19T06:00:29;2.40;;;1.45;;
52188;SDS011;38162;45.926;13.608;2023-10-19T06:02:56;4.40;;;1.48;;
52188;SDS011;38162;45.926;13.608;2023-10-19T06:05:24;3.10;;;2.20;;
52188;SDS011;38162;45.926;13.608;2023-10-19T06:07:50;2.08;;;1.20;;
52188;SDS011;38162;45.926;13.608;2023-10-19T06:10:19;3.00;;;1.50;;
52188;SDS011;38162;45.926;13.608;2023-10-19T06:12:50;3.22;;;1.48;;
52188;SDS011;38162;45.926;13.608;2023-10-19T06:15:17;3.00;;;1.75;;
52188;SDS011;38162;45.926;13.608;2023-10-19T06:17:46;3.25;;;1.92;;
52188;SDS011;38162;45.926;13.608;2023-10-19T06:20:13;5.03;;;1.60;;
52188;SDS011;38162;45.926;13.608;2023-10-19T06:22:55;3.60;;;1.40;;
52188;SDS011;38162;45.926;13.608;2023-10-19T06:25:22;3.10;;;1.60;;
52188;SDS011;38162;45.926;13.608;2023-10-19T06:27:49;4.22;;;1.58;;
52188;SDS011;38162;45.926;13.608;2023-10-19T06:30:16;1.80;;;1.35;;
52188;SDS011;38162;45.926;13.608;2023-10-19T06:32:59;3.15;;;1.45;;
52188;SDS011;38162;45.926;13.608;2023-10-19T06:35:26;2.35;;;1.40;;
52188;SDS011;38162;45.926;13.608;2023-10-19T06:37:53;1.88;;;1.30;;
52188;SDS011;38162;45.926;13.608;2023-10-19T06:40:22;2.10;;;1.60;;
52188;SDS011;38162;45.926;13.608;2023-10-19T06:42:48;2.67;;;1.50;;
52188;SDS011;38162;45.926;13.608;2023-10-19T06:45:15;3.45;;;1.60;;
52188;SDS011;38162;45.926;13.608;2023-10-19T06:47:44;2.85;;;1.60;;
52188;SDS011;38162;45.926;13.608;2023-10-19T06:50:16;3.20;;;1.52;;
52188;SDS011;38162;45.926;13.608;2023-10-19T06:52:43;4.28;;;1.63;;
52188;SDS011;38162;45.926;13.608;2023-10-19T06:55:11;3.63;;;2.05;;
52188;SDS011;38162;45.926;13.608;2023-10-19T06:57:45;6.00;;;3.22;;
52188;SDS011;38162;45.926;13.608;2023-10-19T07:00:15;4.38;;;3.00;;
52188;SDS011;38162;45.926;13.608;2023-10-19T07:02:49;3.97;;;2.53;;
52188;SDS011;38162;45.926;13.608;2023-10-19T07:05:19;4.15;;;3.03;;
52188;SDS011;38162;45.926;13.608;2023-10-19T07:07:49;3.85;;;2.70;;
52188;SDS011;38162;45.926;13.608;2023-10-19T07:10:17;6.57;;;3.22;;
52188;SDS011;38162;45.926;13.608;2023-10-19T07:12:44;6.28;;;3.55;;
52188;SDS011;38162;45.926;13.608;2023-10-19T07:15:12;6.32;;;2.88;;
52188;SDS011;38162;45.926;13.608;2023-10-19T07:17:44;5.22;;;2.95;;
52188;SDS011;38162;45.926;13.608;2023-10-19T07:20:12;5.10;;;3.65;;
52188;SDS011;38162;45.926;13.608;2023-10-19T07:23:00;5.30;;;2.85;;
52188;SDS011;38162;45.926;13.608;2023-10-19T07:25:44;4.35;;;2.25;;
52188;SDS011;38162;45.926;13.608;2023-10-19T07:28:13;6.32;;;2.38;;
52188;SDS011;38162;45.926;13.608;2023-10-19T07:30:40;4.72;;;2.20;;
52188;SDS011;38162;45.926;13.608;2023-10-19T07:33:10;3.47;;;2.00;;
52188;SDS011;38162;45.926;13.608;2023-10-19T07:35:44;3.95;;;1.83;;
52188;SDS011;38162;45.926;13.608;2023-10-19T07:38:17;4.75;;;1.85;;
52188;SDS011;38162;45.926;13.608;2023-10-19T07:40:46;3.58;;;1.70;;
52188;SDS011;38162;45.926;13.608;2023-10-19T07:43:14;2.80;;;1.95;;
52188;SDS011;38162;45.926;13.608;2023-10-19T07:45:40;3.45;;;1.98;;
52188;SDS011;38162;45.926;13.608;2023-10-19T07:48:07;3.03;;;1.98;;
52188;SDS011;38162;45.926;13.608;2023-10-19T07:50:36;6.20;;;2.40;;
52188;SDS011;38162;45.926;13.608;2023-10-19T07:53:03;5.65;;;2.88;;
52188;SDS011;38162;45.926;13.608;2023-10-19T07:55:29;7.72;;;2.53;;
52188;SDS011;38162;45.926;13.608;2023-10-19T07:57:58;8.55;;;2.72;;
52188;SDS011;38162;45.926;13.608;2023-10-19T08:00:31;5.47;;;3.00;;
52188;SDS011;38162;45.926;13.608;2023-10-19T08:03:01;5.30;;;2.92;;
52188;SDS011;38162;45.926;13.608;2023-10-19T08:05:27;3.50;;;2.75;;
52188;SDS011;38162;45.926;13.608;2023-10-19T08:07:53;6.13;;;2.40;;
52188;SDS011;38162;45.926;13.608;2023-10-19T08:10:22;6.35;;;2.20;;
52188;SDS011;38162;45.926;13.608;2023-10-19T08:12:52;5.72;;;2.00;;
52188;SDS011;38162;45.926;13.608;2023-10-19T08:15:25;5.85;;;1.70;;
52188;SDS011;38162;45.926;13.608;2023-10-19T08:17:53;3.55;;;1.85;;
52188;SDS011;38162;45.926;13.608;2023-10-19T08:20:20;4.68;;;1.80;;
52188;SDS011;38162;45.926;13.608;2023-10-19T08:22:49;4.65;;;1.80;;
52188;SDS011;38162;45.926;13.608;2023-10-19T08:25:18;2.63;;;1.83;;
52188;SDS011;38162;45.926;13.608;2023-10-19T08:27:45;3.50;;;2.00;;
52188;SDS011;38162;45.926;13.608;2023-10-19T08:30:18;2.42;;;1.75;;
52188;SDS011;38162;45.926;13.608;2023-10-19T08:32:46;4.13;;;1.80;;
52188;SDS011;38162;45.926;13.608;2023-10-19T08:35:13;3.40;;;1.73;;
52188;SDS011;38162;45.926;13.608;2023-10-19T08:40:12;4.22;;;2.15;;
52188;SDS011;38162;45.926;13.608;2023-10-19T08:42:42;4.05;;;2.38;;
52188;SDS011;38162;45.926;13.608;2023-10-19T08:45:09;5.43;;;2.10;;
52188;SDS011;38162;45.926;13.608;2023-10-19T08:47:40;2.60;;;1.85;;
52188;SDS011;38162;45.926;13.608;2023-10-19T08:50:12;2.47;;;1.67;;
52188;SDS011;38162;45.926;13.608;2023-10-19T08:52:39;2.95;;;1.67;;
52188;SDS011;38162;45.926;13.608;2023-10-19T08:55:07;2.53;;;1.63;;
52188;SDS011;38162;45.926;13.608;2023-10-19T08:57:35;3.78;;;1.73;;
52188;SDS011;38162;45.926;13.608;2023-10-19T09:00:02;2.92;;;1.70;;
52188;SDS011;38162;45.926;13.608;2023-10-19T09:02:34;5.28;;;2.33;;
52188;SDS011;38162;45.926;13.608;2023-10-19T09:05:06;2.30;;;1.98;;
52188;SDS011;38162;45.926;13.608;2023-10-19T09:09:59;5.05;;;2.75;;
52188;SDS011;38162;45.926;13.608;2023-10-19T09:12:26;4.85;;;2.70;;
52188;SDS011;38162;45.926;13.608;2023-10-19T09:14:52;6.80;;;3.83;;
52188;SDS011;38162;45.926;13.608;2023-10-19T09:17:27;4.90;;;3.22;;
52188;SDS011;38162;45.926;13.608;2023-10-19T09:19:57;6.88;;;3.85;;
52188;SDS011;38162;45.926;13.608;2023-10-19T09:22:24;5.10;;;3.00;;
52188;SDS011;38162;45.926;13.608;2023-10-19T09:24:52;5.13;;;3.70;;
52188;SDS011;38162;45.926;13.608;2023-10-19T09:27:20;12.93;;;3.40;;
52188;SDS011;38162;45.926;13.608;2023-10-19T09:29:48;9.68;;;3.80;;
52188;SDS011;38162;45.926;13.608;2023-10-19T09:32:15;5.43;;;3.22;;
52188;SDS011;38162;45.926;13.608;2023-10-19T09:34:41;6.72;;;3.58;;
52188;SDS011;38162;45.926;13.608;2023-10-19T09:37:10;5.88;;;3.55;;
52188;SDS011;38162;45.926;13.608;2023-10-19T09:39:36;4.55;;;3.13;;
52188;SDS011;38162;45.926;13.608;2023-10-19T09:42:05;3.92;;;2.67;;
52188;SDS011;38162;45.926;13.608;2023-10-19T09:44:42;4.97;;;3.17;;
52188;SDS011;38162;45.926;13.608;2023-10-19T09:47:26;6.55;;;3.28;;
52188;SDS011;38162;45.926;13.608;2023-10-19T09:50:00;7.45;;;3.90;;
52188;SDS011;38162;45.926;13.608;2023-10-19T09:52:30;7.28;;;4.97;;
52188;SDS011;38162;45.926;13.608;2023-10-19T09:54:59;6.82;;;2.88;;
52188;SDS011;38162;45.926;13.608;2023-10-19T09:57:34;6.38;;;3.40;;
52188;SDS011;38162;45.926;13.608;2023-10-19T10:00:05;6.22;;;3.00;;
52188;SDS011;38162;45.926;13.608;2023-10-19T10:02:38;3.58;;;2.90;;
52188;SDS011;38162;45.926;13.608;2023-10-19T10:05:36;7.00;;;3.30;;
52188;SDS011;38162;45.926;13.608;2023-10-19T10:10:47;6.28;;;3.67;;
52188;SDS011;38162;45.926;13.608;2023-10-19T10:13:59;6.80;;;4.00;;
52188;SDS011;38162;45.926;13.608;2023-10-19T10:16:03;4.45;;;3.55;;
52188;SDS011;38162;45.926;13.608;2023-10-19T10:18:29;6.15;;;4.00;;
52188;SDS011;38162;45.926;13.608;2023-10-19T10:21:06;6.20;;;4.30;;
52188;SDS011;38162;45.926;13.608;2023-10-19T10:23:45;7.47;;;5.10;;
52188;SDS011;38162;45.926;13.608;2023-10-19T10:26:17;7.93;;;5.95;;
52188;SDS011;38162;45.926;13.608;2023-10-19T10:29:09;6.10;;;5.47;;
52188;SDS011;38162;45.926;13.608;2023-10-19T10:31:43;7.18;;;4.40;;
52188;SDS011;38162;45.926;13.608;2023-10-19T10:34:11;6.88;;;4.75;;
52188;SDS011;38162;45.926;13.608;2023-10-19T10:36:57;5.20;;;4.28;;
52188;SDS011;38162;45.926;13.608;2023-10-19T10:39:33;6.18;;;4.30;;
52188;SDS011;38162;45.926;13.608;2023-10-19T10:42:04;6.68;;;4.60;;
52188;SDS011;38162;45.926;13.608;2023-10-19T10:44:38;5.13;;;4.50;;
52188;SDS011;38162;45.926;13.608;2023-10-19T10:47:09;6.38;;;4.85;;
52188;SDS011;38162;45.926;13.608;2023-10-19T10:52:30;8.32;;;4.30;;
52188;SDS011;38162;45.926;13.608;2023-10-19T10:54:57;9.02;;;4.38;;
52188;SDS011;38162;45.926;13.608;2023-10-19T10:57:31;6.65;;;4.53;;
52188;SDS011;38162;45.926;13.608;2023-10-19T11:00:04;6.20;;;4.65;;
52188;SDS011;38162;45.926;13.608;2023-10-19T11:02:33;6.75;;;4.75;;
52188;SDS011;38162;45.926;13.608;2023-10-19T11:05:00;8.00;;;5.38;;
52188;SDS011;38162;45.926;13.608;2023-10-19T11:07:27;4.55;;;3.50;;
52188;SDS011;38162;45.926;13.608;2023-10-19T11:09:55;7.80;;;3.75;;
52188;SDS011;38162;45.926;13.608;2023-10-19T11:12:21;3.50;;;2.90;;
52188;SDS011;38162;45.926;13.608;2023-10-19T11:14:51;4.88;;;3.05;;
52188;SDS011;38162;45.926;13.608;2023-10-19T11:17:18;4.25;;;2.60;;
52188;SDS011;38162;45.926;13.608;2023-10-19T11:19:44;5.63;;;2.67;;
52188;SDS011;38162;45.926;13.608;2023-10-19T11:22:10;3.45;;;2.47;;
52188;SDS011;38162;45.926;13.608;2023-10-19T11:24:36;8.32;;;3.00;;
52188;SDS011;38162;45.926;13.608;2023-10-19T11:27:05;5.20;;;2.90;;
52188;SDS011;38162;45.926;13.608;2023-10-19T11:29:33;3.95;;;2.80;;
52188;SDS011;38162;45.926;13.608;2023-10-19T11:32:01;7.28;;;3.28;;
52188;SDS011;38162;45.926;13.608;2023-10-19T11:34:28;9.25;;;6.15;;
52188;SDS011;38162;45.926;13.608;2023-10-19T11:36:57;6.22;;;4.97;;
52188;SDS011;38162;45.926;13.608;2023-10-19T11:39:25;5.32;;;3.75;;
52188;SDS011;38162;45.926;13.608;2023-10-19T11:41:51;7.60;;;3.85;;
52188;SDS011;38162;45.926;13.608;2023-10-19T11:44:18;5.35;;;3.63;;
52188;SDS011;38162;45.926;13.608;2023-10-19T11:46:44;9.20;;;3.90;;
52188;SDS011;38162;45.926;13.608;2023-10-19T11:49:10;4.32;;;2.80;;
52188;SDS011;38162;45.926;13.608;2023-10-19T11:51:36;4.32;;;3.00;;
52188;SDS011;38162;45.926;13.608;2023-10-19T11:54:04;6.28;;;3.10;;
52188;SDS011;38162;45.926;13.608;2023-10-19T11:56:33;5.82;;;3.28;;
52188;SDS011;38162;45.926;13.608;2023-10-19T11:58:59;7.47;;;2.78;;
52188;SDS011;38162;45.926;13.608;2023-10-19T12:01:27;9.05;;;2.67;;
52188;SDS011;38162;45.926;13.608;2023-10-19T12:03:54;4.80;;;2.55;;
52188;SDS011;38162;45.926;13.608;2023-10-19T12:06:20;3.97;;;2.92;;
52188;SDS011;38162;45.926;13.608;2023-10-19T12:08:48;4.85;;;2.47;;
52188;SDS011;38162;45.926;13.608;2023-10-19T12:11:14;5.03;;;2.60;;
52188;SDS011;38162;45.926;13.608;2023-10-19T12:13:42;5.18;;;2.95;;
52188;SDS011;38162;45.926;13.608;2023-10-19T12:16:09;6.22;;;2.78;;
52188;SDS011;38162;45.926;13.608;2023-10-19T12:18:38;5.10;;;2.90;;
52188;SDS011;38162;45.926;13.608;2023-10-19T12:21:04;4.93;;;2.78;;
52188;SDS011;38162;45.926;13.608;2023-10-19T12:23:33;10.93;;;3.80;;
52188;SDS011;38162;45.926;13.608;2023-10-19T12:26:00;10.95;;;3.40;;
52188;SDS011;38162;45.926;13.608;2023-10-19T12:28:29;6.57;;;3.00;;
52188;SDS011;38162;45.926;13.608;2023-10-19T12:30:55;9.07;;;3.05;;
52188;SDS011;38162;45.926;13.608;2023-10-19T12:33:21;7.20;;;3.40;;
52188;SDS011;38162;45.926;13.608;2023-10-19T12:35:47;10.20;;;3.90;;
52188;SDS011;38162;45.926;13.608;2023-10-19T12:38:22;9.70;;;3.95;;
52188;SDS011;38162;45.926;13.608;2023-10-19T12:40:49;10.43;;;4.13;;
52188;SDS011;38162;45.926;13.608;2023-10-19T12:43:19;6.22;;;4.35;;
52188;SDS011;38162;45.926;13.608;2023-10-19T12:45:48;5.82;;;3.90;;
52188;SDS011;38162;45.926;13.608;2023-10-19T12:48:22;6.70;;;4.20;;
52188;SDS011;38162;45.926;13.608;2023-10-19T12:50:55;8.05;;;4.88;;
52188;SDS011;38162;45.926;13.608;2023-10-19T12:53:21;6.80;;;4.40;;
52188;SDS011;38162;45.926;13.608;2023-10-19T12:55:50;7.75;;;4.68;;
52188;SDS011;38162;45.926;13.608;2023-10-19T12:58:17;11.68;;;5.30;;
52188;SDS011;38162;45.926;13.608;2023-10-19T13:00:44;12.63;;;4.70;;
52188;SDS011;38162;45.926;13.608;2023-10-19T13:03:13;7.70;;;4.90;;
52188;SDS011;38162;45.926;13.608;2023-10-19T13:05:39;8.32;;;4.85;;
52188;SDS011;38162;45.926;13.608;2023-10-19T13:08:06;7.13;;;4.80;;
52188;SDS011;38162;45.926;13.608;2023-10-19T13:10:33;9.15;;;4.20;;
52188;SDS011;38162;45.926;13.608;2023-10-19T13:13:02;10.27;;;4.72;;
52188;SDS011;38162;45.926;13.608;2023-10-19T13:15:39;7.97;;;4.78;;
52188;SDS011;38162;45.926;13.608;2023-10-19T13:18:06;10.55;;;5.07;;
52188;SDS011;38162;45.926;13.608;2023-10-19T13:20:34;7.80;;;5.53;;
52188;SDS011;38162;45.926;13.608;2023-10-19T13:23:05;13.65;;;6.03;;
52188;SDS011;38162;45.926;13.608;2023-10-19T13:25:32;13.93;;;5.40;;
52188;SDS011;38162;45.926;13.608;2023-10-19T13:28:09;13.57;;;5.22;;
52188;SDS011;38162;45.926;13.608;2023-10-19T13:30:43;5.43;;;4.55;;
52188;SDS011;38162;45.926;13.608;2023-10-19T13:33:12;8.52;;;3.80;;
52188;SDS011;38162;45.926;13.608;2023-10-19T13:35:40;7.95;;;4.95;;
52188;SDS011;38162;45.926;13.608;2023-10-19T13:38:07;5.60;;;4.00;;
52188;SDS011;38162;45.926;13.608;2023-10-19T13:40:37;11.18;;;4.25;;
52188;SDS011;38162;45.926;13.608;2023-10-19T13:43:04;10.27;;;4.63;;
52188;SDS011;38162;45.926;13.608;2023-10-19T13:45:36;5.63;;;3.90;;
52188;SDS011;38162;45.926;13.608;2023-10-19T13:48:03;8.73;;;5.10;;
52188;SDS011;38162;45.926;13.608;2023-10-19T13:50:33;11.82;;;5.53;;
52188;SDS011;38162;45.926;13.608;2023-10-19T13:53:00;9.80;;;5.95;;
52188;SDS011;38162;45.926;13.608;2023-10-19T13:55:29;12.60;;;8.23;;
52188;SDS011;38162;45.926;13.608;2023-10-19T13:57:56;15.93;;;7.80;;
52188;SDS011;38162;45.926;13.608;2023-10-19T14:00:22;12.98;;;6.68;;
52188;SDS011;38162;45.926;13.608;2023-10-19T14:03:06;10.65;;;6.45;;
52188;SDS011;38162;45.926;13.608;2023-10-19T14:08:03;14.70;;;5.80;;
52188;SDS011;38162;45.926;13.608;2023-10-19T14:10:29;12.25;;;6.15;;
52188;SDS011;38162;45.926;13.608;2023-10-19T14:13:01;10.43;;;7.70;;
52188;SDS011;38162;45.926;13.608;2023-10-19T14:15:27;11.20;;;7.35;;
52188;SDS011;38162;45.926;13.608;2023-10-19T14:17:56;10.00;;;5.55;;
52188;SDS011;38162;45.926;13.608;2023-10-19T14:20:23;10.00;;;4.70;;
52188;SDS011;38162;45.926;13.608;2023-10-19T14:22:49;8.18;;;4.47;;
52188;SDS011;38162;45.926;13.608;2023-10-19T14:25:18;5.60;;;4.18;;
52188;SDS011;38162;45.926;13.608;2023-10-19T14:27:47;10.95;;;4.93;;
52188;SDS011;38162;45.926;13.608;2023-10-19T14:30:15;9.15;;;5.10;;
52188;SDS011;38162;45.926;13.608;2023-10-19T14:32:48;5.53;;;4.50;;
52188;SDS011;38162;45.926;13.608;2023-10-19T14:35:15;7.78;;;5.38;;
52188;SDS011;38162;45.926;13.608;2023-10-19T14:37:45;10.68;;;5.88;;
52188;SDS011;38162;45.926;13.608;2023-10-19T14:40:19;10.98;;;5.32;;
52188;SDS011;38162;45.926;13.608;2023-10-19T14:42:49;8.02;;;5.20;;
52188;SDS011;38162;45.926;13.608;2023-10-19T14:45:19;8.68;;;5.25;;
52188;SDS011;38162;45.926;13.608;2023-10-19T14:47:46;11.77;;;5.82;;
52188;SDS011;38162;45.926;13.608;2023-10-19T14:50:13;11.05;;;7.20;;
52188;SDS011;38162;45.926;13.608;2023-10-19T14:52:44;7.85;;;7.05;;
52188;SDS011;38162;45.926;13.608;2023-10-19T14:55:12;10.38;;;6.47;;
52188;SDS011;38162;45.926;13.608;2023-10-19T14:57:42;7.85;;;5.70;;
52188;SDS011;38162;45.926;13.608;2023-10-19T15:00:16;11.48;;;6.68;;
52188;SDS011;38162;45.926;13.608;2023-10-19T15:03:02;12.30;;;6.95;;
52188;SDS011;38162;45.926;13.608;2023-10-19T15:08:03;8.00;;;5.90;;